Time;durP1;ratioP1;P1;durP2;ratioP2;P2;SDS_P1;SDS_P2;PMS_P1;PMS_P2;Temp;Humidity;BMP_temperature;BMP_pressure;BME280_temperature;BME280_humidity;BME280_pressure;Samples;Min_cycle;Max_cycle;Signal;HPM_P1;HPM_P2
2022/02/16 00:00:54;;;;;;;4.25;1.30;;;10.10;60.90;;;;;;2396111;55;21436;-71
2022/02/16 00:03:20;;;;;;;3.45;0.80;;;10.10;60.80;;;;;;2289325;55;21032;-71
2022/02/16 00:05:50;;;;;;;4.25;1.10;;;10.10;60.50;;;;;;2282525;54;20932;-70
2022/02/16 00:08:17;;;;;;;4.55;1.00;;;10.20;60.50;;;;;;2287003;56;21044;-71
2022/02/16 00:10:44;;;;;;;2.87;0.80;;;10.20;61.10;;;;;;2286585;56;21100;-71
2022/02/16 00:13:12;;;;;;;4.20;0.98;;;10.20;61.20;;;;;;2287161;56;20965;-71
2022/02/16 00:15:39;;;;;;;3.72;0.98;;;10.20;60.90;;;;;;2289473;55;20956;-72
2022/02/16 00:18:06;;;;;;;6.45;1.20;;;10.20;60.60;;;;;;2287007;56;21785;-71
2022/02/16 00:20:32;;;;;;;5.37;0.98;;;10.20;60.10;;;;;;2287162;56;21323;-71
2022/02/16 00:22:58;;;;;;;4.05;0.80;;;10.20;59.90;;;;;;2423057;54;21572;-72
2022/02/16 00:25:25;;;;;;;4.78;1.10;;;10.20;60.00;;;;;;2286868;56;21095;-72
2022/02/16 00:27:51;;;;;;;1.90;0.70;;;10.20;60.40;;;;;;2286977;56;21013;-70
2022/02/16 00:30:18;;;;;;;2.10;0.80;;;10.20;60.60;;;;;;2287103;56;21797;-71
2022/02/16 00:32:44;;;;;;;4.60;0.93;;;10.20;59.90;;;;;;2408805;55;21004;-70
2022/02/16 00:35:11;;;;;;;2.00;0.70;;;10.20;60.10;;;;;;2286584;56;20949;-70
2022/02/16 00:37:37;;;;;;;4.65;1.00;;;10.20;60.50;;;;;;2287073;56;21021;-72
2022/02/16 00:40:04;;;;;;;3.97;0.98;;;10.20;59.50;;;;;;2290057;55;21034;-70
2022/02/16 00:42:32;;;;;;;2.42;0.75;;;10.20;59.30;;;;;;2379712;55;21004;-71
2022/02/16 00:45:00;;;;;;;5.07;0.98;;;10.20;59.90;;;;;;2378700;55;21024;-72
2022/02/16 00:47:26;;;;;;;2.70;0.90;;;10.20;59.50;;;;;;2347175;54;22418;-72
2022/02/16 00:49:52;;;;;;;2.72;0.90;;;10.20;59.60;;;;;;2359194;55;20948;-72
2022/02/16 00:52:20;;;;;;;3.25;0.80;;;10.20;60.00;;;;;;2287402;56;21016;-71
2022/02/16 00:54:47;;;;;;;3.00;0.75;;;10.20;60.00;;;;;;2407602;55;20920;-72
2022/02/16 00:57:13;;;;;;;2.22;0.60;;;10.20;59.80;;;;;;2287884;55;20972;-71
2022/02/16 00:59:39;;;;;;;3.22;0.68;;;10.20;60.00;;;;;;2285961;55;21051;-71
2022/02/16 01:02:06;;;;;;;2.95;0.70;;;10.20;60.10;;;;;;2287039;55;21155;-71
2022/02/16 01:04:32;;;;;;;3.60;1.00;;;10.20;60.30;;;;;;2329353;55;20928;-72
2022/02/16 01:07:00;;;;;;;3.65;0.90;;;10.20;59.90;;;;;;2286926;55;21803;-71
2022/02/16 01:09:27;;;;;;;3.80;0.80;;;10.30;60.10;;;;;;2347382;55;20968;-71
2022/02/16 01:11:53;;;;;;;4.18;0.93;;;10.20;60.00;;;;;;2287056;56;21049;-71
2022/02/16 01:14:20;;;;;;;4.90;1.00;;;10.20;60.00;;;;;;2286853;56;21426;-72
2022/02/16 01:16:46;;;;;;;4.57;1.00;;;10.20;60.10;;;;;;2376779;55;20953;-71
2022/02/16 01:19:13;;;;;;;3.80;0.90;;;10.20;60.20;;;;;;2371024;55;21512;-71
2022/02/16 01:21:39;;;;;;;3.20;1.00;;;10.20;60.00;;;;;;2287948;55;21060;-71
2022/02/16 01:24:06;;;;;;;5.57;0.90;;;10.20;59.80;;;;;;2292973;54;22269;-70
2022/02/16 01:26:33;;;;;;;2.87;0.77;;;10.20;60.20;;;;;;2283385;55;21028;-71
2022/02/16 01:29:00;;;;;;;3.53;0.90;;;10.20;60.20;;;;;;2378736;55;20981;-72
2022/02/16 01:31:26;;;;;;;2.62;0.90;;;10.20;60.20;;;;;;2286124;55;21025;-70
2022/02/16 01:33:53;;;;;;;3.25;0.77;;;10.20;59.90;;;;;;2286290;56;20948;-72
2022/02/16 01:36:22;;;;;;;2.85;0.80;;;10.30;59.70;;;;;;2321430;55;21437;-72
2022/02/16 01:38:48;;;;;;;2.65;0.88;;;10.30;59.80;;;;;;2294820;55;20985;-71
2022/02/16 01:41:15;;;;;;;4.72;0.90;;;10.30;59.90;;;;;;2287832;55;21826;-71
2022/02/16 01:43:49;;;;;;;2.05;0.80;;;10.30;59.80;;;;;;2286819;55;20948;-72
2022/02/16 01:46:16;;;;;;;2.97;0.93;;;10.30;59.60;;;;;;2291762;54;20974;-71
2022/02/16 01:48:44;;;;;;;5.05;0.90;;;10.30;59.50;;;;;;2285715;54;20957;-72
2022/02/16 01:51:11;;;;;;;3.17;0.95;;;10.30;59.70;;;;;;2287575;55;21069;-71
2022/02/16 01:53:37;;;;;;;3.15;0.82;;;10.30;59.70;;;;;;2323914;54;21005;-71
2022/02/16 01:56:05;;;;;;;2.92;1.00;;;10.30;59.30;;;;;;2286100;56;20941;-71
2022/02/16 01:58:34;;;;;;;4.15;0.93;;;10.30;59.40;;;;;;2302944;54;21026;-71
2022/02/16 02:01:02;;;;;;;3.55;0.70;;;10.30;59.60;;;;;;2275308;55;20986;-71
2022/02/16 02:03:29;;;;;;;3.90;0.85;;;10.30;59.80;;;;;;2351317;54;20969;-72
2022/02/16 02:05:56;;;;;;;3.00;0.85;;;10.30;60.00;;;;;;2288317;56;21019;-72
2022/02/16 02:08:24;;;;;;;2.30;0.70;;;10.30;59.50;;;;;;2289247;56;20913;-71
2022/02/16 02:10:51;;;;;;;2.80;0.70;;;10.40;59.60;;;;;;2523200;55;21780;-71
2022/02/16 02:13:21;;;;;;;3.22;0.80;;;10.40;59.60;;;;;;2288998;56;20949;-71
2022/02/16 02:15:47;;;;;;;2.97;0.77;;;10.40;59.70;;;;;;2267050;56;20953;-71
2022/02/16 02:18:17;;;;;;;2.25;0.60;;;10.40;60.00;;;;;;2289061;56;20952;-71
2022/02/16 02:20:43;;;;;;;2.37;0.70;;;10.40;59.60;;;;;;2373708;55;21698;-72
2022/02/16 02:23:11;;;;;;;2.20;0.73;;;10.40;59.60;;;;;;2289446;55;21449;-69
2022/02/16 02:25:50;;;;;;;2.47;0.70;;;10.40;59.30;;;;;;2308048;55;20996;-71
2022/02/16 02:28:19;;;;;;;5.32;1.05;;;10.40;59.30;;;;;;2284992;54;20989;-71
2022/02/16 02:30:48;;;;;;;2.78;0.65;;;10.40;59.30;;;;;;2513216;54;21157;-72
2022/02/16 02:33:16;;;;;;;4.05;0.80;;;10.50;59.50;;;;;;2285327;55;20951;-73
2022/02/16 02:35:42;;;;;;;2.45;0.70;;;10.40;59.50;;;;;;2357511;55;20970;-71
2022/02/16 02:38:09;;;;;;;3.22;0.77;;;10.40;59.20;;;;;;2448752;54;21075;-71
2022/02/16 02:40:37;;;;;;;3.67;0.70;;;10.50;59.20;;;;;;2288749;56;21159;-72
2022/02/16 02:43:03;;;;;;;2.25;0.73;;;10.50;59.00;;;;;;2288917;55;21032;-70
2022/02/16 02:45:29;;;;;;;3.83;0.80;;;10.40;59.00;;;;;;2289109;56;20924;-72
2022/02/16 02:47:56;;;;;;;2.17;0.60;;;10.50;59.30;;;;;;2289840;56;21105;-72
2022/02/16 02:50:23;;;;;;;1.73;0.57;;;10.50;59.30;;;;;;2288899;56;21955;-72
2022/02/16 02:52:49;;;;;;;3.58;0.60;;;10.50;59.50;;;;;;2288579;55;20972;-71
2022/02/16 02:55:15;;;;;;;2.78;0.60;;;10.50;59.50;;;;;;2323554;55;21020;-72
2022/02/16 02:57:44;;;;;;;3.17;0.75;;;10.50;59.10;;;;;;2289116;56;20951;-71
2022/02/16 03:00:11;;;;;;;3.40;0.77;;;10.50;59.00;;;;;;2291066;55;21036;-72
2022/02/16 03:02:38;;;;;;;1.90;0.60;;;10.50;59.40;;;;;;2287612;55;20991;-72
2022/02/16 03:05:05;;;;;;;1.77;0.68;;;10.60;59.00;;;;;;2292195;55;21465;-71
2022/02/16 03:07:34;;;;;;;1.35;0.50;;;10.60;59.10;;;;;;2287438;55;21024;-70
2022/02/16 03:10:00;;;;;;;1.58;0.47;;;10.60;59.30;;;;;;2288524;56;20956;-72
2022/02/16 03:12:27;;;;;;;2.62;0.55;;;10.60;59.30;;;;;;2289066;56;20945;-69
2022/02/16 03:14:54;;;;;;;1.48;0.50;;;10.50;59.20;;;;;;2289196;55;20994;-72
2022/02/16 03:17:24;;;;;;;2.00;0.60;;;10.60;59.10;;;;;;2293618;55;21489;-71
2022/02/16 03:19:52;;;;;;;4.65;0.73;;;10.60;59.40;;;;;;2385936;54;20918;-72
2022/02/16 03:22:20;;;;;;;1.00;0.50;;;10.70;58.90;;;;;;2289449;55;21517;-73
2022/02/16 03:24:47;;;;;;;2.58;0.60;;;10.70;59.30;;;;;;2450475;55;21824;-73
2022/02/16 03:27:15;;;;;;;3.95;0.70;;;10.70;59.20;;;;;;2291439;55;20997;-71
2022/02/16 03:29:41;;;;;;;3.10;0.70;;;10.70;58.80;;;;;;2350105;55;20944;-72
2022/02/16 03:32:09;;;;;;;1.80;0.50;;;10.70;58.80;;;;;;2465830;54;1339522;-72
2022/02/16 03:34:35;;;;;;;2.50;0.70;;;10.70;59.10;;;;;;2320280;54;21687;-71
2022/02/16 03:37:02;;;;;;;1.37;0.50;;;10.70;59.30;;;;;;2299537;55;21111;-72
2022/02/16 03:39:29;;;;;;;2.97;0.60;;;10.70;59.10;;;;;;2381818;55;21505;-72
2022/02/16 03:41:55;;;;;;;1.37;0.47;;;10.70;58.80;;;;;;2289205;56;20940;-69
2022/02/16 03:44:22;;;;;;;2.67;0.60;;;10.70;59.20;;;;;;2344557;55;21430;-71
2022/02/16 03:46:51;;;;;;;2.78;0.60;;;10.80;59.50;;;;;;2448217;54;20917;-71
2022/02/16 03:49:18;;;;;;;1.60;0.60;;;10.80;59.50;;;;;;2296715;55;20949;-72
2022/02/16 03:51:45;;;;;;;2.92;0.70;;;10.80;58.80;;;;;;2283251;55;20969;-70
2022/02/16 03:54:11;;;;;;;1.40;0.50;;;10.80;59.30;;;;;;2285800;54;20950;-71
2022/02/16 03:56:37;;;;;;;1.77;0.50;;;10.80;59.20;;;;;;2289634;55;20989;-69
2022/02/16 03:59:05;;;;;;;1.50;0.50;;;10.80;59.20;;;;;;2284057;55;21667;-72
2022/02/16 04:01:33;;;;;;;1.15;0.50;;;10.90;59.50;;;;;;2490442;55;21014;-73
2022/02/16 04:04:00;;;;;;;2.97;0.77;;;10.90;59.60;;;;;;2286320;55;21002;-72
2022/02/16 04:06:29;;;;;;;1.50;0.47;;;10.90;59.60;;;;;;2290800;55;20884;-72
2022/02/16 04:08:56;;;;;;;2.17;0.55;;;10.90;59.70;;;;;;2280820;54;21547;-73
2022/02/16 04:11:26;;;;;;;2.30;0.40;;;10.90;59.50;;;;;;2287232;56;20937;-73
2022/02/16 04:13:55;;;;;;;2.75;0.70;;;10.90;59.70;;;;;;2291741;55;20986;-72
2022/02/16 04:16:22;;;;;;;2.00;0.60;;;10.90;59.50;;;;;;2286391;55;20972;-72
2022/02/16 04:18:48;;;;;;;3.20;0.50;;;10.90;59.50;;;;;;2286979;56;21859;-72
2022/02/16 04:21:15;;;;;;;1.80;0.52;;;11.00;59.70;;;;;;2287404;56;20929;-73
2022/02/16 04:23:42;;;;;;;3.28;0.60;;;11.00;59.70;;;;;;2467020;55;21096;-72
2022/02/16 04:26:09;;;;;;;1.58;0.40;;;11.00;59.70;;;;;;2287439;56;21029;-72
2022/02/16 04:28:37;;;;;;;2.62;0.50;;;11.00;60.00;;;;;;2264594;56;20988;-72
2022/02/16 04:31:03;;;;;;;3.22;0.85;;;11.10;60.10;;;;;;2286938;56;21000;-72
2022/02/16 04:33:29;;;;;;;1.90;0.50;;;11.10;60.20;;;;;;2286537;56;21005;-72
2022/02/16 04:35:59;;;;;;;1.17;0.40;;;11.10;59.90;;;;;;2287104;56;20933;-72
2022/02/16 04:38:25;;;;;;;1.67;0.55;;;11.10;60.00;;;;;;2286473;55;21332;-72
2022/02/16 04:40:52;;;;;;;1.45;0.37;;;11.10;60.30;;;;;;2285664;55;20956;-72
2022/02/16 04:43:18;;;;;;;2.37;0.60;;;11.10;60.10;;;;;;2287296;56;20949;-72
2022/02/16 04:45:45;;;;;;;1.20;0.30;;;11.10;59.70;;;;;;2287026;56;21550;-71
2022/02/16 04:48:12;;;;;;;3.28;0.70;;;11.10;60.00;;;;;;2286773;56;20952;-72
2022/02/16 04:50:38;;;;;;;2.25;0.80;;;11.10;60.20;;;;;;2265380;55;20945;-72
2022/02/16 04:53:04;;;;;;;1.70;0.50;;;11.20;60.00;;;;;;2286516;56;21370;-72
2022/02/16 04:55:32;;;;;;;1.40;0.50;;;11.20;59.80;;;;;;2286375;55;21337;-72
2022/02/16 04:57:58;;;;;;;2.70;0.50;;;11.20;60.00;;;;;;2286953;56;21445;-72
2022/02/16 05:00:26;;;;;;;2.65;0.40;;;11.20;60.00;;;;;;2286264;55;21042;-72
2022/02/16 05:02:52;;;;;;;1.48;0.60;;;11.20;60.00;;;;;;2414019;54;20964;-73
2022/02/16 05:05:19;;;;;;;2.03;0.47;;;11.20;60.00;;;;;;2323101;55;21505;-74
2022/02/16 05:07:45;;;;;;;1.15;0.40;;;11.20;59.70;;;;;;2282092;55;21426;-72
2022/02/16 05:10:11;;;;;;;1.87;0.60;;;11.20;60.00;;;;;;2285356;55;20990;-72
2022/02/16 05:12:38;;;;;;;1.23;0.50;;;11.20;59.80;;;;;;2286779;56;21963;-72
2022/02/16 05:15:05;;;;;;;1.20;0.30;;;11.20;59.70;;;;;;2345455;55;20962;-72
2022/02/16 05:17:31;;;;;;;1.20;0.40;;;11.20;59.70;;;;;;2283718;55;21124;-73
2022/02/16 05:19:58;;;;;;;1.70;0.40;;;11.20;59.50;;;;;;2287372;56;21020;-72
2022/02/16 05:22:24;;;;;;;1.30;0.45;;;11.20;59.70;;;;;;2287079;56;20957;-71
2022/02/16 05:24:54;;;;;;;1.80;0.43;;;11.20;60.00;;;;;;2286194;55;20948;-71
2022/02/16 05:27:21;;;;;;;0.60;0.32;;;11.30;59.90;;;;;;2312004;55;20948;-71
2022/02/16 05:29:47;;;;;;;1.75;0.50;;;11.30;59.70;;;;;;2286708;56;20948;-72
2022/02/16 05:32:14;;;;;;;1.77;0.45;;;11.20;59.90;;;;;;2289301;55;21734;-73
2022/02/16 05:34:40;;;;;;;0.57;0.30;;;11.20;60.10;;;;;;2326489;54;21767;-72
2022/02/16 05:37:06;;;;;;;0.85;0.40;;;11.30;60.40;;;;;;2290082;55;21040;-71
2022/02/16 05:39:33;;;;;;;1.20;0.40;;;11.30;60.10;;;;;;2282998;55;21376;-71
2022/02/16 05:42:02;;;;;;;1.35;0.45;;;11.30;60.00;;;;;;2286965;56;21012;-72
2022/02/16 05:44:29;;;;;;;1.90;0.50;;;11.30;60.50;;;;;;2350489;55;21033;-71
2022/02/16 05:46:56;;;;;;;1.33;0.40;;;11.30;60.40;;;;;;2286907;56;21017;-72
2022/02/16 05:49:22;;;;;;;1.05;0.40;;;11.30;60.10;;;;;;2319415;55;21021;-71
2022/02/16 05:51:49;;;;;;;1.87;0.50;;;11.30;60.20;;;;;;2287146;56;20933;-71
2022/02/16 05:54:15;;;;;;;2.37;0.62;;;11.30;60.40;;;;;;2511781;55;21537;-71
2022/02/16 05:56:41;;;;;;;0.80;0.40;;;11.30;60.60;;;;;;2286108;56;21823;-71
2022/02/16 05:59:12;;;;;;;1.58;0.40;;;11.30;60.70;;;;;;2291472;55;20953;-72
2022/02/16 06:01:38;;;;;;;1.08;0.40;;;11.30;60.80;;;;;;2286372;55;21056;-72
2022/02/16 06:04:06;;;;;;;0.77;0.40;;;11.20;60.60;;;;;;2394996;54;21414;-72
2022/02/16 06:06:32;;;;;;;2.03;0.68;;;11.20;60.70;;;;;;2303862;54;21491;-73
2022/02/16 06:09:02;;;;;;;2.12;0.57;;;11.30;60.90;;;;;;2307819;55;21079;-72
2022/02/16 06:11:29;;;;;;;1.40;0.47;;;11.30;61.10;;;;;;2293626;55;20996;-72
2022/02/16 06:13:56;;;;;;;1.10;0.50;;;11.30;61.00;;;;;;2411460;55;21931;-72
2022/02/16 06:16:23;;;;;;;0.88;0.35;;;11.30;61.10;;;;;;2285900;55;21025;-71
2022/02/16 06:18:50;;;;;;;1.27;0.50;;;11.30;61.10;;;;;;2362117;54;21481;-72
2022/02/16 06:21:17;;;;;;;1.62;0.45;;;11.30;61.10;;;;;;2290700;55;21492;-72
2022/02/16 06:23:44;;;;;;;0.65;0.30;;;11.30;61.00;;;;;;2316282;55;20974;-72
2022/02/16 06:26:11;;;;;;;1.30;0.50;;;11.30;61.20;;;;;;2284499;55;21102;-73
2022/02/16 06:28:38;;;;;;;1.35;0.50;;;11.30;60.90;;;;;;2275531;54;21387;-72
2022/02/16 06:31:06;;;;;;;1.75;0.43;;;11.30;61.10;;;;;;2290605;55;20979;-72
2022/02/16 06:33:33;;;;;;;0.80;0.30;;;11.30;61.10;;;;;;2313687;54;20961;-72
2022/02/16 06:35:59;;;;;;;2.08;0.40;;;11.30;61.10;;;;;;2274476;55;21437;-71
2022/02/16 06:38:26;;;;;;;0.60;0.28;;;11.30;60.70;;;;;;2389162;55;21521;-72
2022/02/16 06:40:52;;;;;;;0.85;0.43;;;11.30;61.00;;;;;;2286885;56;20992;-72
2022/02/16 06:43:18;;;;;;;1.58;0.40;;;11.30;61.10;;;;;;2436704;54;20953;-73
2022/02/16 06:45:45;;;;;;;1.90;0.32;;;11.30;60.90;;;;;;2286659;56;20993;-71
2022/02/16 06:48:12;;;;;;;0.35;0.22;;;11.30;60.50;;;;;;2319934;55;20993;-72
2022/02/16 06:50:38;;;;;;;0.68;0.30;;;11.30;61.00;;;;;;2290410;55;21966;-71
2022/02/16 06:53:08;;;;;;;0.65;0.25;;;11.30;61.00;;;;;;2360079;54;21532;-70
2022/02/16 06:55:34;;;;;;;0.98;0.30;;;11.30;61.10;;;;;;2429633;55;21273;-71
2022/02/16 06:58:03;;;;;;;0.57;0.30;;;11.30;61.10;;;;;;2287181;56;20993;-72
2022/02/16 07:00:29;;;;;;;0.85;0.32;;;11.30;61.00;;;;;;2480290;54;20974;-72
2022/02/16 07:02:56;;;;;;;0.68;0.28;;;11.30;60.90;;;;;;2276722;55;21605;-72
2022/02/16 07:05:22;;;;;;;0.52;0.30;;;11.20;61.10;;;;;;2329843;54;20950;-71
2022/02/16 07:07:49;;;;;;;1.65;0.50;;;11.20;61.00;;;;;;2388193;55;20980;-72
2022/02/16 07:10:17;;;;;;;1.20;0.55;;;11.10;60.90;;;;;;2286472;56;20969;-71
2022/02/16 07:12:44;;;;;;;1.05;0.30;;;11.10;60.90;;;;;;2289065;55;21452;-71
2022/02/16 07:15:13;;;;;;;0.55;0.30;;;11.10;61.30;;;;;;2282989;55;21020;-72
2022/02/16 07:17:42;;;;;;;0.57;0.30;;;11.10;61.50;;;;;;2287201;55;21006;-72
2022/02/16 07:20:11;;;;;;;0.37;0.22;;;11.10;61.60;;;;;;2286114;55;21501;-71
2022/02/16 07:22:51;;;;;;;1.35;0.40;;;11.00;61.70;;;;;;2370891;55;21095;-73
2022/02/16 07:25:18;;;;;;;0.50;0.30;;;11.00;61.50;;;;;;2286737;56;21021;-71
2022/02/16 07:27:57;;;;;;;1.15;0.60;;;11.00;62.30;;;;;;2353705;55;21365;-70
2022/02/16 07:30:23;;;;;;;1.02;0.40;;;11.00;61.80;;;;;;2287024;56;20964;-72
2022/02/16 07:32:50;;;;;;;2.12;0.40;;;10.90;62.00;;;;;;2519910;54;20961;-73
2022/02/16 07:35:16;;;;;;;1.17;0.40;;;10.90;62.00;;;;;;2321045;55;20991;-70
2022/02/16 07:37:44;;;;;;;0.73;0.30;;;10.90;62.20;;;;;;2368439;54;21785;-71
2022/02/16 07:40:11;;;;;;;0.57;0.30;;;10.90;62.30;;;;;;2517967;55;20958;-71
2022/02/16 07:42:37;;;;;;;1.15;0.37;;;10.90;63.20;;;;;;2376656;54;21000;-71
2022/02/16 07:45:07;;;;;;;0.82;0.40;;;10.90;62.60;;;;;;2286832;56;21104;-71
2022/02/16 07:47:34;;;;;;;0.73;0.30;;;10.80;62.60;;;;;;2286978;56;21015;-71
2022/02/16 07:50:01;;;;;;;0.50;0.22;;;10.80;62.60;;;;;;2435154;54;21037;-70
2022/02/16 07:52:33;;;;;;;0.85;0.30;;;10.80;62.90;;;;;;2287484;55;21517;-70
2022/02/16 07:54:59;;;;;;;1.02;0.40;;;10.80;62.90;;;;;;2335714;55;21902;-70
2022/02/16 07:57:26;;;;;;;0.68;0.35;;;10.80;63.00;;;;;;2357587;54;21045;-69
2022/02/16 07:59:52;;;;;;;1.20;0.30;;;10.70;63.00;;;;;;2325458;54;20948;-70
2022/02/16 08:02:18;;;;;;;1.30;0.37;;;10.70;63.30;;;;;;2292996;55;21482;-72
2022/02/16 08:04:45;;;;;;;1.33;0.40;;;10.70;63.40;;;;;;2286746;56;21421;-71
2022/02/16 08:07:11;;;;;;;0.95;0.40;;;10.70;63.50;;;;;;2342961;55;20956;-71
2022/02/16 08:09:38;;;;;;;1.27;0.30;;;10.60;63.70;;;;;;2286731;55;20973;-72
2022/02/16 08:12:04;;;;;;;1.08;0.43;;;10.60;63.60;;;;;;2287315;55;20949;-69
2022/02/16 08:14:33;;;;;;;0.62;0.40;;;10.60;63.70;;;;;;2360111;55;21754;-70
2022/02/16 08:17:04;;;;;;;0.47;0.30;;;10.60;63.90;;;;;;2286987;56;20976;-70
2022/02/16 08:19:30;;;;;;;0.20;0.20;;;10.60;64.10;;;;;;2303936;55;21120;-71
2022/02/16 08:21:58;;;;;;;0.17;0.15;;;10.60;64.20;;;;;;2353052;55;21916;-71
2022/02/16 08:24:35;;;;;;;1.37;0.40;;;10.50;64.20;;;;;;2286610;56;21520;-70
2022/02/16 08:27:02;;;;;;;0.60;0.30;;;10.60;64.50;;;;;;2297541;55;20964;-71
2022/02/16 08:29:28;;;;;;;1.67;0.60;;;10.50;64.60;;;;;;2286952;56;20972;-71
2022/02/16 08:31:55;;;;;;;0.68;0.30;;;10.50;64.70;;;;;;2319972;54;20948;-70
2022/02/16 08:34:24;;;;;;;0.77;0.40;;;10.60;64.90;;;;;;2370354;55;21022;-71
2022/02/16 08:36:55;;;;;;;0.77;0.40;;;10.50;64.80;;;;;;2282095;55;20993;-72
2022/02/16 08:39:25;;;;;;;1.80;0.40;;;10.50;65.00;;;;;;2397083;54;21453;-71
2022/02/16 08:41:53;;;;;;;0.95;0.37;;;10.60;65.20;;;;;;2286932;56;20933;-72
2022/02/16 08:44:20;;;;;;;0.80;0.37;;;10.60;65.30;;;;;;2286817;56;21494;-70
2022/02/16 08:46:46;;;;;;;1.37;0.40;;;10.60;65.50;;;;;;2337793;54;21016;-72
2022/02/16 08:49:13;;;;;;;0.37;0.30;;;10.70;65.60;;;;;;2329384;55;21040;-70
2022/02/16 08:51:39;;;;;;;0.75;0.30;;;10.70;65.70;;;;;;2290585;55;20968;-71
2022/02/16 08:54:06;;;;;;;1.50;0.47;;;10.70;66.00;;;;;;2307183;55;20992;-70
2022/02/16 08:56:33;;;;;;;1.10;0.50;;;10.80;66.00;;;;;;2297220;55;21044;-72
2022/02/16 08:59:00;;;;;;;2.00;0.50;;;10.80;65.80;;;;;;2311090;54;21624;-71
2022/02/16 09:01:31;;;;;;;1.70;0.62;;;10.90;66.00;;;;;;2285019;55;20980;-70
2022/02/16 09:03:58;;;;;;;1.20;0.50;;;10.90;66.00;;;;;;2287020;55;21072;-73
2022/02/16 09:06:25;;;;;;;1.42;0.52;;;11.00;65.90;;;;;;2285103;55;20976;-70
2022/02/16 09:08:51;;;;;;;1.15;0.47;;;11.00;65.90;;;;;;2287295;56;20928;-72
2022/02/16 09:11:18;;;;;;;2.70;0.40;;;11.00;66.00;;;;;;2287035;56;20969;-71
2022/02/16 09:13:45;;;;;;;3.20;0.40;;;11.10;66.00;;;;;;2286848;56;20957;-72
2022/02/16 09:16:11;;;;;;;0.80;0.40;;;11.10;66.10;;;;;;2515209;54;21586;-71
2022/02/16 09:18:38;;;;;;;1.02;0.30;;;11.20;66.30;;;;;;2287025;56;20964;-72
2022/02/16 09:21:06;;;;;;;1.15;0.50;;;11.20;66.20;;;;;;2287237;56;20976;-71
2022/02/16 09:23:33;;;;;;;1.05;0.40;;;11.30;66.40;;;;;;2286830;56;21016;-71
2022/02/16 09:26:01;;;;;;;0.82;0.30;;;11.30;66.40;;;;;;2315374;55;21625;-72
2022/02/16 09:28:28;;;;;;;1.08;0.35;;;11.40;66.40;;;;;;2521742;55;20957;-71
2022/02/16 09:30:56;;;;;;;0.68;0.30;;;11.40;66.20;;;;;;2282857;55;21515;-71
2022/02/16 09:33:23;;;;;;;1.65;0.40;;;11.50;66.30;;;;;;2286669;56;20980;-72
2022/02/16 09:35:51;;;;;;;1.67;0.50;;;11.50;66.30;;;;;;2287051;56;20945;-72
2022/02/16 09:38:18;;;;;;;1.15;0.32;;;11.60;66.20;;;;;;2287720;56;20961;-72
2022/02/16 09:40:45;;;;;;;1.33;0.40;;;11.60;66.30;;;;;;2305921;54;21792;-72
2022/02/16 09:43:13;;;;;;;1.77;0.40;;;11.60;65.70;;;;;;2287061;56;21760;-70
2022/02/16 09:45:40;;;;;;;0.77;0.40;;;11.70;66.00;;;;;;2286759;56;21008;-72
2022/02/16 09:48:06;;;;;;;0.88;0.40;;;11.70;66.20;;;;;;2286990;55;21010;-72
2022/02/16 09:50:34;;;;;;;0.62;0.30;;;11.80;65.90;;;;;;2358450;55;21040;-73
2022/02/16 09:53:01;;;;;;;2.20;0.43;;;11.80;65.70;;;;;;2290104;55;20973;-72
2022/02/16 09:55:29;;;;;;;1.00;0.30;;;11.80;65.70;;;;;;2508272;54;20994;-72
2022/02/16 09:57:55;;;;;;;0.77;0.40;;;11.90;65.60;;;;;;2323109;55;21000;-73
2022/02/16 10:00:22;;;;;;;1.00;0.40;;;11.90;65.80;;;;;;2427756;55;20996;-72
2022/02/16 10:02:48;;;;;;;1.10;0.40;;;12.00;65.80;;;;;;2287583;55;20941;-71
2022/02/16 10:05:17;;;;;;;0.60;0.30;;;12.00;65.60;;;;;;2285668;55;22535;-72
2022/02/16 10:07:44;;;;;;;0.68;0.30;;;12.00;65.10;;;;;;2286956;56;20941;-71
2022/02/16 10:10:17;;;;;;;0.95;0.40;;;12.00;65.40;;;;;;2287241;56;21436;-72
2022/02/16 10:12:44;;;;;;;;;;;12.10;65.50;;;;;;2290304;56;20988;-71
2022/02/16 10:15:12;;;;;;;0.50;0.37;;;12.10;65.00;;;;;;2286833;56;20068;-72
2022/02/16 10:17:38;;;;;;;0.65;0.30;;;12.20;65.70;;;;;;2403852;55;20980;-72
2022/02/16 10:20:07;;;;;;;0.93;0.35;;;12.20;65.90;;;;;;2287414;56;21416;-72
2022/02/16 10:22:49;;;;;;;1.77;0.62;;;12.20;65.80;;;;;;2289916;56;20953;-72
2022/02/16 10:25:16;;;;;;;;;;;12.30;65.00;;;;;;2286802;54;21426;-72
2022/02/16 10:28:09;;;;;;;2.05;0.60;;;12.30;65.10;;;;;;2299983;54;20443;-71
2022/02/16 10:30:39;;;;;;;4.12;1.08;;;12.40;65.40;;;;;;2287814;56;21467;-72
2022/02/16 10:33:25;;;;;;;3.62;1.15;;;12.40;65.70;;;;;;2287721;56;20984;-71
2022/02/16 10:36:23;;;;;;;1.85;0.70;;;12.40;65.60;;;;;;2286849;56;21009;-73
2022/02/16 10:39:06;;;;;;;2.03;0.70;;;12.50;65.50;;;;;;2343599;55;21061;-71
2022/02/16 10:42:11;;;;;;;2.35;0.40;;;12.50;65.70;;;;;;2315782;55;20957;-72
2022/02/16 10:44:37;;;;;;;2.22;0.30;;;12.60;65.70;;;;;;2286233;55;20953;-71
2022/02/16 10:47:09;;;;;;;1.12;0.40;;;12.60;66.60;;;;;;2288957;55;21006;-72
2022/02/16 10:49:36;;;;;;;1.02;0.40;;;12.70;66.50;;;;;;2410852;54;20949;-72
2022/02/16 10:52:14;;;;;;;1.83;0.60;;;12.70;66.10;;;;;;2286888;56;21056;-71
2022/02/16 10:54:59;;;;;;;2.08;0.60;;;12.80;66.10;;;;;;2286518;56;21014;-73
2022/02/16 10:57:25;;;;;;;0.62;0.30;;;12.80;65.20;;;;;;2264406;56;21437;-71
2022/02/16 10:59:52;;;;;;;1.05;0.40;;;12.80;65.50;;;;;;2287186;56;21000;-71
2022/02/16 11:02:21;;;;;;;0.75;0.28;;;12.90;65.70;;;;;;2292207;55;21566;-71
2022/02/16 11:04:47;;;;;;;0.45;0.30;;;12.90;66.10;;;;;;2287005;56;20989;-72
2022/02/16 11:07:18;;;;;;;1.67;0.50;;;13.00;65.80;;;;;;2287450;56;20961;-72
2022/02/16 11:09:44;;;;;;;0.90;0.30;;;13.00;65.80;;;;;;2285812;55;21871;-72
2022/02/16 11:12:10;;;;;;;1.02;0.40;;;13.00;65.90;;;;;;2287256;56;20925;-72
2022/02/16 11:14:37;;;;;;;1.00;0.43;;;13.10;65.70;;;;;;2287334;56;20973;-72
2022/02/16 11:17:03;;;;;;;0.80;0.47;;;13.10;65.60;;;;;;2418432;55;20940;-73
2022/02/16 11:19:35;;;;;;;1.17;0.40;;;13.10;65.20;;;;;;2286957;56;20968;-72
2022/02/16 11:22:18;;;;;;;0.65;0.40;;;13.20;65.10;;;;;;2377156;54;21009;-72
2022/02/16 11:24:46;;;;;;;1.02;0.40;;;13.20;64.70;;;;;;2286817;56;20972;-72
2022/02/16 11:29:22;;;;;;;1.10;0.40;;;13.20;64.90;;;;;;2358952;54;21013;-72
2022/02/16 11:31:49;;;;;;;1.15;0.45;;;13.20;65.10;;;;;;2287118;56;21545;-72
2022/02/16 11:34:18;;;;;;;0.77;0.30;;;13.30;65.70;;;;;;2287703;55;21001;-73
2022/02/16 11:36:55;;;;;;;1.20;0.45;;;13.30;64.90;;;;;;2286979;55;20961;-72
2022/02/16 11:39:59;;;;;;;0.75;0.40;;;13.30;64.70;;;;;;2283583;55;21059;-72
2022/02/16 11:42:53;;;;;;;0.45;0.30;;;13.30;64.70;;;;;;2292866;55;20955;-73
2022/02/16 11:48:34;;;;;;;1.42;0.60;;;13.30;64.60;;;;;;2293161;55;21051;-71
2022/02/16 11:51:38;;;;;;;2.15;0.30;;;13.30;64.80;;;;;;2264443;56;21500;-72
2022/02/16 11:54:22;;;;;;;;;;;13.30;64.90;;;;;;2520133;54;20937;-72
2022/02/16 11:56:49;;;;;;;1.42;0.60;;;13.30;65.00;;;;;;2286333;55;20141;-72
2022/02/16 11:59:23;;;;;;;1.27;0.60;;;13.30;65.60;;;;;;2285656;55;20945;-72
2022/02/16 12:02:08;;;;;;;1.62;0.50;;;13.30;65.60;;;;;;2286965;56;20969;-71
2022/02/16 12:04:47;;;;;;;0.90;0.47;;;13.20;65.10;;;;;;2288663;56;20988;-72
2022/02/16 12:07:30;;;;;;;0.80;0.35;;;13.20;65.40;;;;;;2362326;54;20998;-72
2022/02/16 12:10:18;;;;;;;0.85;0.40;;;13.20;65.40;;;;;;2365979;54;26602;-73
2022/02/16 12:13:00;;;;;;;0.93;0.40;;;13.10;65.60;;;;;;2287044;56;21974;-71
2022/02/16 12:15:41;;;;;;;1.08;0.45;;;13.10;65.60;;;;;;2287062;56;21024;-72
2022/02/16 12:18:13;;;;;;;1.00;0.40;;;13.10;65.90;;;;;;2370958;55;21474;-72
2022/02/16 12:20:41;;;;;;;0.95;0.40;;;13.10;66.20;;;;;;2372814;55;20973;-72
2022/02/16 12:23:07;;;;;;;1.67;0.60;;;13.10;66.60;;;;;;2290841;56;21012;-72
2022/02/16 12:25:33;;;;;;;2.22;0.90;;;13.10;66.70;;;;;;2286334;56;21016;-71
2022/02/16 12:28:04;;;;;;;1.95;0.80;;;13.10;66.90;;;;;;2286986;56;21025;-72
2022/02/16 12:30:38;;;;;;;1.20;0.50;;;13.10;66.60;;;;;;2286608;56;20908;-72
2022/02/16 12:33:31;;;;;;;1.10;0.57;;;13.20;66.80;;;;;;2479164;54;21908;-72
2022/02/16 12:35:59;;;;;;;0.90;0.40;;;13.30;66.50;;;;;;2287309;56;20952;-72
2022/02/16 12:38:26;;;;;;;0.85;0.37;;;13.30;66.90;;;;;;2298778;55;21000;-73
2022/02/16 12:40:53;;;;;;;0.60;0.40;;;13.30;66.90;;;;;;2371250;55;21021;-71
2022/02/16 12:43:21;;;;;;;0.73;0.32;;;13.40;66.70;;;;;;2289292;55;20994;-71
2022/02/16 12:45:48;;;;;;;1.33;0.40;;;13.40;67.10;;;;;;2282034;55;21803;-72
2022/02/16 12:48:16;;;;;;;0.85;0.40;;;13.40;67.20;;;;;;2382251;54;21574;-71
2022/02/16 12:50:44;;;;;;;0.82;0.40;;;13.50;67.10;;;;;;2266650;56;20985;-72
2022/02/16 12:53:12;;;;;;;0.93;0.40;;;13.50;66.90;;;;;;2338068;55;21046;-72
2022/02/16 12:55:48;;;;;;;0.85;0.40;;;13.60;67.10;;;;;;2279074;55;20948;-72
2022/02/16 12:58:15;;;;;;;0.60;0.35;;;13.60;67.00;;;;;;2286719;56;21053;-71
2022/02/16 13:00:47;;;;;;;1.35;0.50;;;13.60;67.10;;;;;;2264351;55;21036;-73